createdAt,value
2019-03-22T00:01:47.576Z,18.00
2019-03-22T00:04:16.721Z,18.00
2019-03-22T00:06:45.955Z,18.00
2019-03-22T00:09:15.784Z,18.00
2019-03-22T00:11:45.784Z,18.00
2019-03-22T00:14:15.306Z,18.00
2019-03-22T00:16:44.456Z,18.00
2019-03-22T00:19:13.588Z,18.00
2019-03-22T00:21:42.748Z,18.00
2019-03-22T00:24:11.914Z,18.00
2019-03-22T00:26:41.107Z,18.00
2019-03-22T00:29:10.557Z,18.00
2019-03-22T00:31:39.717Z,17.90
2019-03-22T00:34:08.972Z,18.00
2019-03-22T00:36:38.134Z,17.90
2019-03-22T00:39:07.602Z,17.90
2019-03-22T00:41:36.771Z,17.90
2019-03-22T00:44:05.942Z,17.90
2019-03-22T00:46:35.701Z,17.90
2019-03-22T00:49:05.210Z,17.90
2019-03-22T00:51:34.437Z,17.90
2019-03-22T00:54:03.917Z,17.90
2019-03-22T00:56:33.144Z,17.90
2019-03-22T00:59:02.721Z,17.90
2019-03-22T01:01:32.242Z,17.90
2019-03-22T01:04:01.743Z,17.90
2019-03-22T01:06:31.341Z,17.90
2019-03-22T01:09:01.147Z,17.90
2019-03-22T01:11:30.405Z,17.90
2019-03-22T01:13:59.625Z,17.90
2019-03-22T01:16:29.369Z,17.90
2019-03-22T01:18:58.510Z,17.90
2019-03-22T01:21:27.740Z,17.90
2019-03-22T01:23:56.945Z,17.90
2019-03-22T01:26:26.465Z,17.90
2019-03-22T01:28:55.605Z,17.90
2019-03-22T01:31:24.838Z,17.90
2019-03-22T01:33:53.960Z,17.90
2019-03-22T01:36:23.489Z,17.90
2019-03-22T01:38:52.940Z,17.90
2019-03-22T01:41:22.092Z,17.90
2019-03-22T01:43:51.224Z,17.90
2019-03-22T01:46:20.391Z,17.80
2019-03-22T01:48:49.867Z,17.90
2019-03-22T01:51:19.372Z,17.80
2019-03-22T01:53:48.559Z,17.80
2019-03-22T01:56:17.974Z,17.90
2019-03-22T01:58:47.148Z,17.80
2019-03-22T02:01:16.364Z,17.90
2019-03-22T02:03:45.513Z,17.80
2019-03-22T02:06:15.072Z,17.90
2019-03-22T02:08:44.277Z,17.80
2019-03-22T02:11:13.516Z,17.90
2019-03-22T02:13:43.069Z,17.90
2019-03-22T02:16:12.222Z,17.90
2019-03-22T02:18:42.252Z,17.90
2019-03-22T02:21:11.688Z,17.90
2019-03-22T02:23:40.835Z,17.80
2019-03-22T02:26:09.972Z,17.90
2019-03-22T02:28:39.135Z,17.90
2019-03-22T02:31:08.786Z,17.90
2019-03-22T02:33:38.000Z,17.80
2019-03-22T02:36:07.240Z,17.80
2019-03-22T02:38:36.450Z,17.80
2019-03-22T02:41:05.613Z,17.80
2019-03-22T02:43:34.826Z,17.80
2019-03-22T02:46:04.042Z,17.80
2019-03-22T02:48:33.254Z,17.80
2019-03-22T02:51:02.406Z,17.80
2019-03-22T02:53:31.623Z,17.80
2019-03-22T02:56:01.447Z,17.80
2019-03-22T02:58:30.832Z,17.80
2019-03-22T03:01:00.060Z,17.70
2019-03-22T03:03:29.262Z,17.70
2019-03-22T03:05:58.478Z,17.80
2019-03-22T03:08:27.976Z,17.80
2019-03-22T03:10:57.139Z,17.80
2019-03-22T03:13:26.332Z,17.80
2019-03-22T03:15:55.494Z,17.80
2019-03-22T03:18:24.993Z,17.80
2019-03-22T03:20:54.500Z,17.80
2019-03-22T03:23:23.702Z,17.80
2019-03-22T03:25:52.851Z,17.80
2019-03-22T03:28:36.114Z,17.80
2019-03-22T03:30:52.940Z,17.80
2019-03-22T03:33:22.430Z,17.70
2019-03-22T03:35:51.667Z,17.80
2019-03-22T03:38:20.871Z,17.80
2019-03-22T03:40:50.096Z,17.80
2019-03-22T03:43:19.300Z,17.80
2019-03-22T03:45:48.776Z,17.80
2019-03-22T03:51:59.349Z,17.70
2019-03-22T03:54:28.431Z,17.70
2019-03-22T03:56:57.552Z,17.70
2019-03-22T03:59:26.646Z,17.60
2019-03-22T04:01:55.746Z,17.60
2019-03-22T04:04:24.838Z,17.60
2019-03-22T04:06:54.041Z,17.70
2019-03-22T04:09:23.201Z,17.70
2019-03-22T04:11:52.604Z,17.70
2019-03-22T04:14:22.028Z,17.60
2019-03-22T04:16:51.148Z,17.60
2019-03-22T04:19:20.238Z,17.60
2019-03-22T04:21:49.381Z,17.60
2019-03-22T04:24:18.550Z,17.60
2019-03-22T04:26:47.658Z,17.60
2019-03-22T04:29:16.815Z,17.60
2019-03-22T04:31:45.908Z,17.60
2019-03-22T04:34:15.334Z,17.60
2019-03-22T04:36:44.883Z,17.60
2019-03-22T04:39:14.523Z,17.60
2019-03-22T04:41:43.698Z,17.60
2019-03-22T04:44:12.858Z,17.70
2019-03-22T04:46:42.369Z,17.60
2019-03-22T04:49:11.454Z,17.70
2019-03-22T04:51:40.549Z,17.70
2019-03-22T04:54:09.635Z,17.60
2019-03-22T04:56:38.927Z,17.60
2019-03-22T04:59:18.432Z,17.60
2019-03-22T05:01:38.974Z,17.60
2019-03-22T05:04:08.151Z,17.60
2019-03-22T05:06:37.551Z,17.60
2019-03-22T05:09:09.206Z,17.60
2019-03-22T05:11:38.439Z,17.60
2019-03-22T05:14:07.526Z,17.60
2019-03-22T05:16:36.899Z,17.60
2019-03-22T05:19:06.006Z,17.60
2019-03-22T05:21:35.113Z,17.60
2019-03-22T05:24:04.686Z,17.60
2019-03-22T05:26:33.800Z,17.60
2019-03-22T05:29:03.411Z,17.60
2019-03-22T05:31:57.067Z,17.60
2019-03-22T05:34:26.579Z,17.60
2019-03-22T05:36:56.142Z,17.60
2019-03-22T05:39:25.599Z,17.50
2019-03-22T05:41:54.767Z,17.50
2019-03-22T05:44:23.875Z,17.40
2019-03-22T05:46:53.037Z,17.40
2019-03-22T05:49:22.119Z,17.40
2019-03-22T05:51:51.217Z,17.40
2019-03-22T05:54:20.303Z,17.40
2019-03-22T05:56:49.477Z,17.40
2019-03-22T05:59:18.879Z,17.40
2019-03-22T06:01:47.985Z,17.40
2019-03-22T06:04:17.070Z,17.40
2019-03-22T06:06:46.171Z,17.40
2019-03-22T06:09:15.266Z,17.40
2019-03-22T06:11:44.366Z,17.40
2019-03-22T06:14:14.295Z,17.40
2019-03-22T06:16:43.394Z,17.50
2019-03-22T06:19:12.570Z,17.50
2019-03-22T06:21:41.715Z,17.50
2019-03-22T06:24:10.799Z,17.50
2019-03-22T06:26:39.907Z,17.60
2019-03-22T06:29:08.990Z,17.50
2019-03-22T06:31:38.090Z,17.50
2019-03-22T06:34:07.178Z,17.50
2019-03-22T06:36:36.276Z,17.50
2019-03-22T06:39:08.702Z,17.50
2019-03-22T06:41:39.066Z,17.60
2019-03-22T06:44:08.222Z,17.50
2019-03-22T06:46:37.440Z,17.60
2019-03-22T06:49:07.046Z,17.60
2019-03-22T06:51:36.859Z,17.60
2019-03-22T06:54:06.273Z,17.60
2019-03-22T06:56:35.374Z,17.60
2019-03-22T06:59:04.786Z,17.60
2019-03-22T07:01:33.883Z,17.60
2019-03-22T07:04:03.019Z,17.60
2019-03-22T07:06:32.370Z,17.60
2019-03-22T07:09:01.454Z,17.60
2019-03-22T07:11:30.939Z,17.60
2019-03-22T07:14:00.070Z,17.60
2019-03-22T07:16:29.162Z,17.60
2019-03-22T07:18:58.600Z,17.60
2019-03-22T07:21:27.762Z,17.60
2019-03-22T07:23:56.924Z,17.60
2019-03-22T07:26:26.334Z,17.60
2019-03-22T07:28:55.502Z,17.60
2019-03-22T07:31:24.671Z,17.70
2019-03-22T07:33:53.818Z,17.70
2019-03-22T07:36:22.914Z,17.70
2019-03-22T07:38:52.003Z,17.70
2019-03-22T07:41:21.103Z,17.70
2019-03-22T07:43:50.518Z,17.70
2019-03-22T07:46:20.035Z,17.80
2019-03-22T07:48:49.110Z,17.80
2019-03-22T07:51:18.498Z,17.80
2019-03-22T07:53:47.922Z,17.80
2019-03-22T07:56:17.040Z,17.80
2019-03-22T07:58:46.470Z,17.70
2019-03-22T08:01:15.674Z,17.70
2019-03-22T08:03:44.858Z,17.80
2019-03-22T08:06:13.971Z,17.70
2019-03-22T08:08:43.059Z,17.80
2019-03-22T08:11:12.159Z,17.80
2019-03-22T08:13:41.259Z,17.80
2019-03-22T08:16:10.510Z,17.70
2019-03-22T08:18:39.654Z,17.80
2019-03-22T08:21:09.034Z,17.70
2019-03-22T08:23:38.350Z,17.70
2019-03-22T08:26:07.462Z,17.80
2019-03-22T08:28:37.210Z,17.80
2019-03-22T08:31:06.408Z,17.80
2019-03-22T08:33:35.570Z,17.80
2019-03-22T08:36:05.031Z,17.70
2019-03-22T08:38:34.243Z,17.70
2019-03-22T08:41:03.795Z,17.80
2019-03-22T08:43:33.315Z,17.80
2019-03-22T08:46:02.472Z,17.80
2019-03-22T08:48:31.630Z,17.80
2019-03-22T08:51:00.811Z,17.80
2019-03-22T08:53:29.994Z,17.80
2019-03-22T08:55:59.347Z,17.90
2019-03-22T08:58:29.030Z,17.80
2019-03-22T09:00:58.312Z,17.80
2019-03-22T09:03:27.575Z,17.80
2019-03-22T09:05:56.685Z,17.90
2019-03-22T09:08:25.854Z,17.90
2019-03-22T09:10:55.101Z,17.90
2019-03-22T09:13:24.214Z,17.90
2019-03-22T09:15:53.719Z,17.90
2019-03-22T09:18:23.082Z,17.90
2019-03-22T09:20:52.515Z,17.90
2019-03-22T09:23:22.042Z,17.90
2019-03-22T09:25:51.323Z,17.90
2019-03-22T09:28:21.162Z,17.90
2019-03-22T09:30:50.331Z,17.90
2019-03-22T09:33:19.536Z,17.90
2019-03-22T09:35:48.795Z,17.90
2019-03-22T09:38:18.008Z,18.00
2019-03-22T09:40:47.182Z,18.00
2019-03-22T09:43:16.646Z,17.90
2019-03-22T09:45:45.852Z,17.90
2019-03-22T09:48:14.999Z,17.90
2019-03-22T09:50:44.655Z,18.00
2019-03-22T09:53:13.809Z,17.90
2019-03-22T09:55:43.007Z,17.90
2019-03-22T09:58:12.197Z,18.00
2019-03-22T10:00:41.370Z,18.00
2019-03-22T10:03:10.861Z,18.00
2019-03-22T10:05:40.294Z,18.00
2019-03-22T10:08:09.514Z,18.00
2019-03-22T10:10:38.662Z,18.00
2019-03-22T10:13:07.819Z,18.00
2019-03-22T10:15:37.007Z,18.00
2019-03-22T10:18:06.459Z,18.00
2019-03-22T10:20:35.945Z,18.00
2019-03-22T10:23:05.074Z,18.10
2019-03-22T10:25:34.787Z,18.10
2019-03-22T10:28:04.168Z,18.10
2019-03-22T10:30:33.366Z,18.10
2019-03-22T10:33:02.529Z,18.00
2019-03-22T10:35:31.706Z,18.10
2019-03-22T10:38:02.296Z,18.10
2019-03-22T10:40:31.671Z,18.10
2019-03-22T10:43:00.827Z,18.10
2019-03-22T10:45:29.967Z,18.10
2019-03-22T10:47:59.139Z,18.10
2019-03-22T10:50:28.400Z,18.20
2019-03-22T10:52:57.986Z,18.30
2019-03-22T10:55:30.138Z,18.30
2019-03-22T10:57:58.163Z,18.20
2019-03-22T11:00:27.255Z,18.30
2019-03-22T11:02:56.605Z,18.30
2019-03-22T11:05:25.694Z,18.30
2019-03-22T11:07:55.046Z,18.40
2019-03-22T11:10:24.150Z,18.40
2019-03-22T11:12:53.238Z,18.40
2019-03-22T11:15:23.894Z,18.40
2019-03-22T11:17:53.202Z,18.30
2019-03-22T11:20:22.319Z,18.30
2019-03-22T11:22:51.673Z,18.20
2019-03-22T11:25:20.790Z,18.20
2019-03-22T11:27:49.886Z,18.30
2019-03-22T11:30:18.987Z,18.30
2019-03-22T11:32:48.078Z,18.30
2019-03-22T11:35:17.216Z,18.40
2019-03-22T11:37:46.383Z,18.30
2019-03-22T11:40:15.706Z,18.40
2019-03-22T11:42:45.079Z,18.30
2019-03-22T11:45:16.170Z,18.30
2019-03-22T11:47:45.258Z,18.30
2019-03-22T11:50:14.362Z,18.30
2019-03-22T11:52:43.451Z,18.30
2019-03-22T11:55:12.618Z,18.30
2019-03-22T11:57:41.951Z,18.30
2019-03-22T12:00:19.194Z,18.20
2019-03-22T12:02:48.274Z,18.30
2019-03-22T12:05:17.576Z,18.30
2019-03-22T12:07:46.746Z,18.30
2019-03-22T12:10:16.587Z,18.30
2019-03-22T12:12:45.718Z,18.30
2019-03-22T12:15:14.943Z,18.30
2019-03-22T12:17:44.082Z,18.30
2019-03-22T12:20:13.377Z,18.40
2019-03-22T12:22:42.494Z,18.40
2019-03-22T12:25:11.962Z,18.30
2019-03-22T12:27:41.330Z,18.30
2019-03-22T12:30:12.622Z,18.30
2019-03-22T12:32:41.800Z,18.40
2019-03-22T12:35:11.007Z,18.50
2019-03-22T12:37:40.430Z,18.50
2019-03-22T12:40:09.631Z,18.50
2019-03-22T12:42:39.029Z,18.40
2019-03-22T12:45:11.011Z,18.50
2019-03-22T12:47:40.327Z,18.60
2019-03-22T12:50:09.490Z,18.60
2019-03-22T12:52:39.115Z,18.50
2019-03-22T12:55:08.555Z,18.50
2019-03-22T12:57:38.510Z,18.50
2019-03-22T13:00:09.076Z,18.50
2019-03-22T13:02:42.265Z,18.50
2019-03-22T13:05:09.104Z,18.50
2019-03-22T13:07:38.191Z,18.50
2019-03-22T13:10:08.235Z,18.50
2019-03-22T13:12:37.351Z,18.50
2019-03-22T13:15:06.955Z,18.50
2019-03-22T13:17:36.059Z,18.50
2019-03-22T13:20:06.690Z,18.40
2019-03-22T13:22:35.794Z,18.40
2019-03-22T13:25:05.788Z,18.40
2019-03-22T13:27:35.130Z,18.30
2019-03-22T13:30:04.814Z,18.30
2019-03-22T13:32:33.930Z,18.30
2019-03-22T13:35:03.375Z,18.30
2019-03-22T13:37:32.458Z,18.30
2019-03-22T13:40:01.599Z,18.30
2019-03-22T13:42:30.778Z,18.30
2019-03-22T13:44:59.918Z,18.30
2019-03-22T13:47:29.425Z,18.30
2019-03-22T13:49:58.622Z,18.40
2019-03-22T13:52:27.723Z,18.40
2019-03-22T13:54:56.866Z,18.50
2019-03-22T13:57:26.014Z,18.50
2019-03-22T13:59:55.102Z,18.50
2019-03-22T14:02:24.578Z,18.50
2019-03-22T14:04:53.715Z,18.50
2019-03-22T14:07:23.082Z,18.50
2019-03-22T14:09:52.179Z,18.50
2019-03-22T14:12:21.351Z,18.50
2019-03-22T14:14:50.682Z,18.50
2019-03-22T14:17:20.042Z,18.50
2019-03-22T14:19:49.133Z,18.50
2019-03-22T14:22:18.298Z,18.50
2019-03-22T14:24:49.129Z,18.50
2019-03-22T14:27:18.390Z,18.50
2019-03-22T14:29:47.494Z,18.50
2019-03-22T14:32:16.658Z,18.50
2019-03-22T14:34:45.998Z,18.60
2019-03-22T14:37:15.094Z,18.50
2019-03-22T14:39:44.218Z,18.50
2019-03-22T14:42:13.391Z,18.50
2019-03-22T14:44:42.841Z,18.50
2019-03-22T14:47:13.035Z,18.50
2019-03-22T14:49:42.462Z,18.50
2019-03-22T14:52:11.559Z,18.50
2019-03-22T14:54:40.645Z,18.50
2019-03-22T14:57:09.768Z,18.50
2019-03-22T14:59:38.874Z,18.50
2019-03-22T15:02:08.019Z,18.50
2019-03-22T15:04:37.122Z,18.50
2019-03-22T15:07:06.230Z,18.50
2019-03-22T15:09:35.671Z,18.60
2019-03-22T15:12:04.791Z,18.60
2019-03-22T15:15:01.135Z,18.60
2019-03-22T15:17:47.608Z,18.60
2019-03-22T15:20:26.906Z,18.60
2019-03-22T15:23:23.873Z,18.50
2019-03-22T15:26:10.776Z,18.50
2019-03-22T15:29:04.929Z,18.50
2019-03-22T15:31:51.770Z,18.40
2019-03-22T15:34:46.106Z,18.40
2019-03-22T15:37:33.089Z,18.40
2019-03-22T15:40:01.534Z,18.40
2019-03-22T15:42:30.704Z,18.50
2019-03-22T15:44:59.848Z,18.40
2019-03-22T15:47:29.246Z,18.40
2019-03-22T15:49:58.461Z,18.40
2019-03-22T15:52:27.622Z,18.40
2019-03-22T15:54:56.782Z,18.40
2019-03-22T15:57:25.919Z,18.40
2019-03-22T15:59:55.327Z,18.50
2019-03-22T16:02:24.510Z,18.50
2019-03-22T16:04:53.879Z,18.40
2019-03-22T16:07:23.303Z,18.50
2019-03-22T16:09:52.622Z,18.50
2019-03-22T16:12:21.803Z,18.50
2019-03-22T16:14:51.407Z,18.40
2019-03-22T16:17:20.502Z,18.40
2019-03-22T16:19:49.584Z,18.50
2019-03-22T16:22:18.934Z,18.40
2019-03-22T16:24:48.133Z,18.50
2019-03-22T16:27:17.298Z,18.50
2019-03-22T16:29:46.397Z,18.50
2019-03-22T16:32:15.490Z,18.40
2019-03-22T16:34:44.606Z,18.40
2019-03-22T16:37:13.682Z,18.40
2019-03-22T16:39:45.506Z,18.40
2019-03-22T16:42:15.404Z,18.40
2019-03-22T16:44:44.774Z,18.40
2019-03-22T16:47:13.881Z,18.40
2019-03-22T16:49:42.995Z,18.40
2019-03-22T16:52:12.086Z,18.40
2019-03-22T16:54:41.450Z,18.30
2019-03-22T16:57:10.594Z,18.40
2019-03-22T16:59:39.962Z,18.40
2019-03-22T17:02:09.315Z,18.30
2019-03-22T17:04:38.470Z,18.30
2019-03-22T17:07:08.812Z,18.30
2019-03-22T17:09:37.911Z,18.30
2019-03-22T17:12:07.003Z,18.30
2019-03-22T17:14:36.097Z,18.30
2019-03-22T17:17:05.454Z,18.30
2019-03-22T17:19:34.547Z,18.30
2019-03-22T17:22:03.642Z,18.30
2019-03-22T17:24:33.019Z,18.30
2019-03-22T17:27:02.468Z,18.30
2019-03-22T17:29:31.870Z,18.30
2019-03-22T17:32:01.225Z,18.30
2019-03-22T17:34:30.563Z,18.30
2019-03-22T17:36:59.816Z,18.30
2019-03-22T17:39:28.934Z,18.30
2019-03-22T17:41:58.026Z,18.30
2019-03-22T17:44:27.132Z,18.30
2019-03-22T17:46:56.538Z,18.30
2019-03-22T17:49:25.650Z,18.30
2019-03-22T17:51:55.006Z,18.30
2019-03-22T17:54:24.102Z,18.30
2019-03-22T17:56:53.210Z,18.30
2019-03-22T17:59:22.375Z,18.30
2019-03-22T18:01:51.558Z,18.30
2019-03-22T18:04:24.279Z,18.20
2019-03-22T18:06:51.460Z,18.30
2019-03-22T18:09:20.785Z,18.30
2019-03-22T18:11:49.900Z,18.30
2019-03-22T18:14:18.990Z,18.30
2019-03-22T18:16:48.450Z,18.30
2019-03-22T18:19:17.564Z,18.30
2019-03-22T18:21:46.659Z,18.30
2019-03-22T18:24:15.775Z,18.30
2019-03-22T18:26:44.900Z,18.30
2019-03-22T18:29:13.998Z,18.30
2019-03-22T18:31:43.094Z,18.20
2019-03-22T18:34:12.227Z,18.20
2019-03-22T18:36:41.317Z,18.10
2019-03-22T18:39:10.425Z,18.10
2019-03-22T18:41:41.736Z,18.10
2019-03-22T18:44:10.822Z,18.00
2019-03-22T18:46:40.301Z,18.00
2019-03-22T18:49:09.399Z,18.00
2019-03-22T18:51:38.796Z,18.00
2019-03-22T18:54:07.985Z,18.00
2019-03-22T18:56:37.466Z,18.00
2019-03-22T18:59:06.580Z,18.00
2019-03-22T19:01:35.745Z,17.90
2019-03-22T19:04:04.838Z,17.90
2019-03-22T19:06:33.934Z,18.00
2019-03-22T19:09:03.744Z,18.00
2019-03-22T19:11:32.894Z,18.00
2019-03-22T19:14:02.011Z,17.90
2019-03-22T19:16:31.105Z,17.90
2019-03-22T19:19:00.214Z,17.90
2019-03-22T19:21:29.307Z,17.90
2019-03-22T19:23:58.398Z,18.00
2019-03-22T19:26:27.514Z,18.00
2019-03-22T19:28:56.607Z,18.00
2019-03-22T19:31:25.782Z,18.00
2019-03-22T19:33:55.102Z,18.10
2019-03-22T19:36:24.532Z,18.10
2019-03-22T19:38:53.885Z,18.10
2019-03-22T19:41:23.083Z,18.20
2019-03-22T19:43:52.179Z,18.20
2019-03-22T19:46:21.277Z,18.20
2019-03-22T19:48:50.454Z,18.10
2019-03-22T19:51:20.487Z,18.20
2019-03-22T19:53:49.594Z,18.20
2019-03-22T19:56:18.690Z,18.20
2019-03-22T19:58:47.840Z,18.20
2019-03-22T20:01:17.179Z,18.30
2019-03-22T20:03:46.539Z,18.20
2019-03-22T20:06:15.706Z,18.20
2019-03-22T20:08:44.837Z,18.20
2019-03-22T20:11:13.999Z,18.30
2019-03-22T20:13:43.086Z,18.30
2019-03-22T20:16:13.046Z,18.30
2019-03-22T20:18:42.143Z,18.30
2019-03-22T20:21:11.243Z,18.30
2019-03-22T20:23:40.346Z,18.30
2019-03-22T20:26:09.442Z,18.20
2019-03-22T20:28:38.535Z,18.30
2019-03-22T20:31:07.650Z,18.30
2019-03-22T20:33:36.746Z,18.30
2019-03-22T20:36:05.843Z,18.30
2019-03-22T20:38:34.946Z,18.30
2019-03-22T20:41:04.034Z,18.30
2019-03-22T20:43:33.206Z,18.30
2019-03-22T20:46:02.305Z,18.30
2019-03-22T20:48:31.442Z,18.20
2019-03-22T20:51:00.593Z,18.20
2019-03-22T20:53:29.695Z,18.20
2019-03-22T20:55:58.786Z,18.20
2019-03-22T20:58:27.907Z,18.20
2019-03-22T21:00:57.001Z,18.20
2019-03-22T21:03:26.159Z,18.20
2019-03-22T21:05:55.279Z,18.20
2019-03-22T21:08:24.698Z,18.10
2019-03-22T21:10:53.819Z,18.20
2019-03-22T21:13:22.979Z,18.10
2019-03-22T21:15:52.146Z,18.10
2019-03-22T21:18:21.242Z,18.10
2019-03-22T21:20:50.352Z,18.10
2019-03-22T21:23:19.447Z,18.10
2019-03-22T21:25:48.550Z,18.10
2019-03-22T21:28:17.662Z,18.10
2019-03-22T21:30:46.995Z,18.10
2019-03-22T21:33:16.671Z,18.10
2019-03-22T21:35:45.767Z,18.10
2019-03-22T21:38:15.786Z,18.10
2019-03-22T21:40:44.959Z,18.10
2019-03-22T21:43:14.058Z,18.00
2019-03-22T21:45:43.158Z,18.00
2019-03-22T21:48:12.241Z,18.10
2019-03-22T21:50:41.350Z,18.00
2019-03-22T21:53:10.442Z,18.00
2019-03-22T21:55:39.534Z,18.00
2019-03-22T21:58:08.623Z,18.00
2019-03-22T22:00:37.994Z,18.00
2019-03-22T22:03:07.102Z,18.00
2019-03-22T22:05:36.275Z,18.00
2019-03-22T22:08:05.387Z,18.00
2019-03-22T22:10:34.507Z,18.00
2019-03-22T22:13:03.602Z,18.00
2019-03-22T22:15:32.698Z,18.00
2019-03-22T22:18:01.894Z,18.00
2019-03-22T22:20:30.990Z,18.00
2019-03-22T22:23:00.827Z,18.00
2019-03-22T22:25:29.931Z,18.00
2019-03-22T22:27:59.019Z,18.00
2019-03-22T22:30:28.142Z,18.00
2019-03-22T22:32:57.542Z,18.00
2019-03-22T22:35:26.656Z,18.00
2019-03-22T22:37:55.766Z,18.00
2019-03-22T22:40:24.938Z,18.00
2019-03-22T22:42:54.060Z,17.90
2019-03-22T22:45:23.464Z,18.00
2019-03-22T22:47:52.803Z,18.00
2019-03-22T22:50:21.878Z,18.00
2019-03-22T22:52:50.970Z,18.00
2019-03-22T22:55:20.082Z,18.00
2019-03-22T22:57:49.273Z,18.00
2019-03-22T23:00:18.509Z,18.00
2019-03-22T23:02:47.674Z,18.00
2019-03-22T23:05:16.854Z,18.00
2019-03-22T23:07:45.950Z,18.00
2019-03-22T23:10:15.054Z,18.00
2019-03-22T23:12:44.167Z,18.00
2019-03-22T23:15:13.286Z,18.00
2019-03-22T23:17:42.643Z,17.90
2019-03-22T23:20:11.882Z,17.90
2019-03-22T23:22:40.981Z,17.90
2019-03-22T23:25:10.258Z,17.90
2019-03-22T23:27:39.375Z,17.90
2019-03-22T23:30:08.560Z,17.90
2019-03-22T23:32:37.728Z,17.90
2019-03-22T23:35:07.029Z,17.90
2019-03-22T23:37:36.141Z,17.90
2019-03-22T23:40:05.340Z,17.90
2019-03-22T23:42:34.689Z,17.90
2019-03-22T23:45:03.899Z,17.90
2019-03-22T23:47:32.982Z,17.90
2019-03-22T23:50:02.111Z,17.90
2019-03-22T23:52:31.304Z,17.90
2019-03-22T23:55:00.670Z,17.90
2019-03-22T23:57:29.761Z,17.90
2019-03-22T23:59:59.186Z,17.90
